Time;durP1;ratioP1;P1;durP2;ratioP2;P2;SDS_P1;SDS_P2;PMS_P1;PMS_P2;Temp;Humidity;BMP_temperature;BMP_pressure;BME280_temperature;BME280_humidity;BME280_pressure;Samples;Min_cycle;Max_cycle;Signal;HPM_P1;HPM_P2
2022/07/11 00:01:37;;;;;;;6.10;3.15;;;;;;;;;;8395528;28;20113;-85
2022/07/11 00:05:40;;;;;;;6.43;3.80;;;;;;;;;;8395399;28;20397;-85
2022/07/11 00:09:44;;;;;;;5.13;3.45;;;;;;;;;;8397407;28;20059;-85
2022/07/11 00:13:47;;;;;;;4.70;3.17;;;;;;;;;;8401324;28;20484;-86
2022/07/11 00:17:49;;;;;;;6.72;3.65;;;;;;;;;;8402510;28;20511;-86
2022/07/11 00:21:52;;;;;;;7.20;3.40;;;;;;;;;;8401140;28;20051;-85
2022/07/11 00:25:57;;;;;;;5.45;3.05;;;;;;;;;;8400700;28;20044;-91
2022/07/11 00:29:59;;;;;;;6.60;2.95;;;;;;;;;;8401325;28;20476;-85
2022/07/11 00:34:02;;;;;;;6.50;2.95;;;;;;;;;;8401195;28;20051;-85
2022/07/11 00:38:05;;;;;;;6.85;3.42;;;;;;;;;;8400416;28;20044;-86
2022/07/11 00:42:09;;;;;;;6.68;3.15;;;;;;;;;;8394165;28;20047;-85
2022/07/11 00:46:12;;;;;;;4.68;2.92;;;;;;;;;;8394007;28;20044;-86
2022/07/11 00:50:16;;;;;;;5.10;2.90;;;;;;;;;;8399892;28;20060;-86
2022/07/11 00:54:21;;;;;;;3.78;2.75;;;;;;;;;;8400437;28;20434;-85
2022/07/11 00:58:26;;;;;;;4.47;2.70;;;;;;;;;;8400018;28;20041;-85
2022/07/11 01:02:28;;;;;;;4.68;2.92;;;;;;;;;;8399186;28;20048;-85
2022/07/11 01:06:31;;;;;;;5.53;2.60;;;;;;;;;;8399836;28;20086;-86
2022/07/11 01:10:35;;;;;;;5.32;2.50;;;;;;;;;;8399564;28;20044;-86
2022/07/11 01:14:38;;;;;;;7.40;3.20;;;;;;;;;;8400063;28;20571;-86
2022/07/11 01:18:43;;;;;;;5.45;3.22;;;;;;;;;;8399185;28;20064;-86
2022/07/11 01:22:49;;;;;;;6.47;2.88;;;;;;;;;;8398280;28;20475;-86
2022/07/11 01:26:54;;;;;;;4.15;2.65;;;;;;;;;;8399151;28;20484;-85
2022/07/11 01:30:57;;;;;;;4.07;2.60;;;;;;;;;;8398940;28;20117;-85
2022/07/11 01:35:02;;;;;;;6.25;3.10;;;;;;;;;;8398616;28;20052;-86
2022/07/11 01:39:05;;;;;;;7.57;3.30;;;;;;;;;;8398781;28;20109;-86
2022/07/11 01:43:09;;;;;;;4.65;2.80;;;;;;;;;;8398475;28;20561;-86
2022/07/11 01:47:11;;;;;;;4.32;2.60;;;;;;;;;;8398249;28;20040;-86
2022/07/11 01:51:14;;;;;;;4.97;2.80;;;;;;;;;;8398470;28;20556;-85
2022/07/11 01:55:17;;;;;;;3.63;2.58;;;;;;;;;;8398142;28;20048;-86
2022/07/11 01:59:21;;;;;;;6.93;3.05;;;;;;;;;;8398172;28;20049;-85
2022/07/11 02:03:23;;;;;;;5.53;3.03;;;;;;;;;;8397982;28;20079;-86
2022/07/11 02:11:42;;;;;;;6.30;3.00;;;;;;;;;;8397244;28;20049;-85
2022/07/11 02:15:47;;;;;;;8.25;3.33;;;;;;;;;;8397798;28;20403;-86
2022/07/11 02:19:50;;;;;;;4.15;2.75;;;;;;;;;;8397600;28;20499;-85
2022/07/11 02:23:52;;;;;;;4.45;2.97;;;;;;;;;;8397566;28;20094;-86
2022/07/11 02:27:55;;;;;;;8.98;3.50;;;;;;;;;;8397123;28;20045;-86
2022/07/11 02:32:00;;;;;;;3.60;2.65;;;;;;;;;;8397463;28;20051;-86
2022/07/11 02:36:03;;;;;;;7.55;3.67;;;;;;;;;;8391617;28;20119;-86
2022/07/11 02:40:07;;;;;;;5.93;3.58;;;;;;;;;;8395137;28;20392;-90
2022/07/11 02:44:09;;;;;;;4.15;3.00;;;;;;;;;;8396968;28;20077;-88
2022/07/11 02:48:14;;;;;;;5.43;3.15;;;;;;;;;;8396658;28;20062;-86
2022/07/11 02:52:16;;;;;;;4.22;3.10;;;;;;;;;;8396988;28;20120;-85
2022/07/11 02:56:19;;;;;;;4.15;3.08;;;;;;;;;;8396730;28;20044;-86
2022/07/11 03:00:21;;;;;;;6.80;3.50;;;;;;;;;;8396375;28;20036;-85
2022/07/11 03:04:25;;;;;;;6.80;3.25;;;;;;;;;;8396674;28;20086;-86
2022/07/11 03:08:28;;;;;;;7.38;3.38;;;;;;;;;;8396962;28;20051;-86
2022/07/11 03:12:31;;;;;;;7.00;3.85;;;;;;;;;;8396410;28;20135;-86
2022/07/11 03:16:33;;;;;;;6.78;3.28;;;;;;;;;;8396388;28;20071;-86
2022/07/11 03:20:37;;;;;;;7.50;4.28;;;;;;;;;;8396212;28;20048;-86
2022/07/11 03:24:41;;;;;;;7.07;4.72;;;;;;;;;;8387200;28;20048;-87
2022/07/11 03:28:43;;;;;;;10.85;4.90;;;;;;;;;;8376752;28;20186;-87
2022/07/11 03:32:46;;;;;;;11.43;6.30;;;;;;;;;;8374325;28;20451;-88
2022/07/11 03:36:51;;;;;;;8.60;5.57;;;;;;;;;;8381068;28;20070;-87
2022/07/11 03:40:57;;;;;;;10.27;4.25;;;;;;;;;;8380801;28;20160;-87
2022/07/11 03:45:01;;;;;;;7.53;4.40;;;;;;;;;;8383921;28;20396;-88
2022/07/11 03:49:03;;;;;;;10.82;3.90;;;;;;;;;;8389260;28;20091;-86
2022/07/11 03:53:09;;;;;;;6.55;3.75;;;;;;;;;;8388122;28;20067;-89
2022/07/11 03:57:11;;;;;;;5.90;3.90;;;;;;;;;;8387008;28;20132;-87
2022/07/11 04:01:14;;;;;;;8.00;3.80;;;;;;;;;;8390336;28;20792;-87
2022/07/11 04:05:17;;;;;;;6.82;4.15;;;;;;;;;;8386465;28;20048;-87
2022/07/11 04:09:21;;;;;;;6.07;4.30;;;;;;;;;;8397963;28;20052;-87
2022/07/11 04:13:23;;;;;;;8.70;4.45;;;;;;;;;;8396008;28;20111;-90
2022/07/11 04:17:26;;;;;;;8.65;4.60;;;;;;;;;;8390235;28;20116;-90
2022/07/11 04:21:29;;;;;;;6.53;4.05;;;;;;;;;;8399179;28;20036;-86
2022/07/11 04:25:34;;;;;;;7.97;4.10;;;;;;;;;;8396392;28;20040;-88
2022/07/11 04:29:36;;;;;;;6.47;3.65;;;;;;;;;;8398955;28;20473;-87
2022/07/11 04:33:39;;;;;;;8.00;3.75;;;;;;;;;;8388608;28;20513;-87
2022/07/11 04:37:42;;;;;;;8.70;3.97;;;;;;;;;;8390690;28;20041;-87
2022/07/11 04:41:46;;;;;;;5.88;3.45;;;;;;;;;;8387943;28;20040;-86
2022/07/11 04:45:49;;;;;;;5.75;3.70;;;;;;;;;;8392246;28;20151;-87
2022/07/11 04:49:52;;;;;;;9.30;4.60;;;;;;;;;;8375787;28;20144;-90
2022/07/11 04:53:54;;;;;;;6.85;3.35;;;;;;;;;;8377788;28;20477;-85
2022/07/11 04:57:59;;;;;;;5.20;3.30;;;;;;;;;;8372527;28;20037;-91
2022/07/11 05:02:01;;;;;;;5.78;3.80;;;;;;;;;;8373751;28;20041;-86
2022/07/11 05:06:06;;;;;;;9.30;3.50;;;;;;;;;;8372936;28;20041;-86
2022/07/11 05:10:10;;;;;;;6.28;3.60;;;;;;;;;;8369811;28;20044;-85
2022/07/11 05:14:16;;;;;;;5.97;3.70;;;;;;;;;;8377179;28;20124;-86
2022/07/11 05:18:19;;;;;;;5.50;3.55;;;;;;;;;;8368226;28;20044;-86
2022/07/11 05:22:22;;;;;;;11.55;3.30;;;;;;;;;;8385943;28;20051;-86
2022/07/11 05:26:25;;;;;;;6.15;2.90;;;;;;;;;;8400141;28;20127;-95
2022/07/11 05:30:29;;;;;;;8.50;3.60;;;;;;;;;;8403333;28;20045;-96
2022/07/11 05:34:33;;;;;;;5.60;2.78;;;;;;;;;;8402518;28;20036;-89
2022/07/11 05:38:41;;;;;;;8.70;3.03;;;;;;;;;;8394301;28;20048;-88
2022/07/11 05:42:47;;;;;;;4.72;2.72;;;;;;;;;;8390023;28;20089;-96
2022/07/11 05:51:26;;;;;;;5.35;2.65;;;;;;;;;;8374549;28;20094;-92
2022/07/11 05:55:55;;;;;;;3.95;2.30;;;;;;;;;;8398100;28;20076;-90
2022/07/11 06:00:16;;;;;;;4.93;2.45;;;;;;;;;;8485217;22;20055;-91
2022/07/11 06:09:01;;;;;;;7.82;3.28;;;;;;;;;;8447565;22;20055;-92
2022/07/11 06:13:11;;;;;;;5.43;2.92;;;;;;;;;;8429607;28;20115;-91
2022/07/11 06:17:18;;;;;;;;;;;;;;;;;;8427194;28;20057;-92
2022/07/11 06:21:28;;;;;;;5.30;2.67;;;;;;;;;;8435081;28;19927;-92
2022/07/11 06:25:39;;;;;;;4.78;2.20;;;;;;;;;;8434737;28;20085;-92
2022/07/11 06:29:43;;;;;;;8.02;2.50;;;;;;;;;;8429913;28;20044;-90
2022/07/11 06:33:54;;;;;;;5.05;2.00;;;;;;;;;;8432711;28;20488;-90
2022/07/11 06:38:00;;;;;;;;;;;;;;;;;;8435673;28;20050;-90
2022/07/11 06:42:08;;;;;;;8.68;2.05;;;;;;;;;;8441546;28;20325;-90
2022/07/11 06:46:12;;;;;;;8.52;2.05;;;;;;;;;;8428230;28;20056;-89
2022/07/11 06:50:16;;;;;;;4.38;1.63;;;;;;;;;;8424518;28;20052;-90
2022/07/11 06:54:20;;;;;;;7.20;2.10;;;;;;;;;;8419359;28;20040;-89
2022/07/11 06:58:34;;;;;;;5.32;1.77;;;;;;;;;;8422318;28;20074;-89
2022/07/11 07:03:02;;;;;;;5.93;1.77;;;;;;;;;;8434747;28;20452;-96
2022/07/11 07:11:32;;;;;;;4.28;1.40;;;;;;;;;;8280422;28;20089;-90
2022/07/11 07:15:46;;;;;;;4.93;1.45;;;;;;;;;;8298422;28;20054;-91
2022/07/11 07:20:01;;;;;;;4.22;1.27;;;;;;;;;;8296250;28;20149;-92
2022/07/11 07:24:08;;;;;;;1.75;1.00;;;;;;;;;;8306682;28;20057;-92
2022/07/11 07:28:43;;;;;;;3.20;1.10;;;;;;;;;;8302218;28;20597;-89
2022/07/11 07:32:54;;;;;;;4.97;1.35;;;;;;;;;;8303843;28;20056;-91
2022/07/11 07:36:58;;;;;;;4.60;1.13;;;;;;;;;;8310787;28;20514;-88
2022/07/11 07:41:02;;;;;;;3.45;1.20;;;;;;;;;;8296760;28;20081;-89
2022/07/11 07:45:08;;;;;;;3.15;1.15;;;;;;;;;;8293438;28;20138;-91
2022/07/11 07:54:44;;;;;;;3.88;1.20;;;;;;;;;;8389597;28;20044;-90
2022/07/11 07:58:56;;;;;;;4.43;1.13;;;;;;;;;;8390379;28;20052;-89
2022/07/11 08:03:45;;;;;;;5.88;1.15;;;;;;;;;;8391312;28;20076;-89
2022/07/11 08:08:01;;;;;;;5.50;1.25;;;;;;;;;;8387670;28;20523;-90
2022/07/11 08:16:52;;;;;;;5.63;1.40;;;;;;;;;;8389136;28;20488;-90
2022/07/11 08:21:09;;;;;;;1.65;1.00;;;;;;;;;;8378948;28;20067;-91
2022/07/11 08:25:27;;;;;;;3.95;1.00;;;;;;;;;;8376788;28;20056;-92
2022/07/11 08:30:18;;;;;;;3.33;0.90;;;;;;;;;;8372905;28;20060;-90
2022/07/11 08:34:32;;;;;;;1.00;0.85;;;;;;;;;;8383683;28;20111;-90
2022/07/11 08:38:57;;;;;;;2.38;0.88;;;;;;;;;;8382038;28;20058;-91
2022/07/11 08:43:17;;;;;;;4.75;1.35;;;;;;;;;;8388200;28;20052;-91
2022/07/11 08:47:32;;;;;;;;;;;;;;;;;;8326490;28;20064;-90
2022/07/11 08:51:42;;;;;;;1.20;0.90;;;;;;;;;;8309839;28;19921;-92
2022/07/11 08:56:15;;;;;;;3.15;1.10;;;;;;;;;;8306037;28;20057;-91
2022/07/11 09:00:36;;;;;;;4.35;2.10;;;;;;;;;;8314417;28;20069;-93
2022/07/11 09:05:02;;;;;;;2.65;1.33;;;;;;;;;;8325951;28;20522;-91
2022/07/11 09:09:12;;;;;;;4.82;2.30;;;;;;;;;;8325503;28;20054;-91
2022/07/11 09:13:20;;;;;;;9.18;2.33;;;;;;;;;;8306014;28;20417;-93
2022/07/11 09:17:31;;;;;;;4.70;1.83;;;;;;;;;;8309524;28;20410;-90
2022/07/11 09:26:12;;;;;;;4.63;1.27;;;;;;;;;;8329098;28;20148;-93
2022/07/11 09:30:39;;;;;;;5.00;1.42;;;;;;;;;;8325480;28;20049;-93
2022/07/11 09:35:19;;;;;;;3.97;1.50;;;;;;;;;;8357571;28;20067;-92
2022/07/11 09:39:43;;;;;;;5.38;1.60;;;;;;;;;;8423399;28;20124;-93
2022/07/11 09:44:17;;;;;;;2.40;1.38;;;;;;;;;;8413090;28;20069;-92
2022/07/11 09:48:48;;;;;;;2.15;1.50;;;;;;;;;;8399816;28;20087;-92
2022/07/11 09:53:12;;;;;;;5.82;1.60;;;;;;;;;;8392171;28;20564;-90
2022/07/11 09:57:40;;;;;;;5.55;2.20;;;;;;;;;;8390858;28;20048;-91
2022/07/11 10:01:58;;;;;;;3.75;1.50;;;;;;;;;;8390222;28;20129;-94
2022/07/11 10:06:15;;;;;;;3.25;1.35;;;;;;;;;;8374926;28;20591;-91
2022/07/11 10:15:42;;;;;;;3.92;2.17;;;;;;;;;;8289499;28;20103;-91
2022/07/11 10:20:19;;;;;;;5.05;2.17;;;;;;;;;;8300414;28;20057;-91
2022/07/11 10:24:52;;;;;;;7.13;2.17;;;;;;;;;;8297568;28;20555;-91
2022/07/11 10:29:12;;;;;;;3.85;1.80;;;;;;;;;;8290502;28;20168;-92
2022/07/11 10:33:37;;;;;;;3.05;1.00;;;;;;;;;;8299707;28;20071;-91
2022/07/11 10:38:05;;;;;;;1.05;0.60;;;;;;;;;;8292366;28;20060;-90
2022/07/11 10:42:46;;;;;;;1.08;0.93;;;;;;;;;;8283954;28;20064;-95
2022/07/11 10:47:57;;;;;;;1.55;0.90;;;;;;;;;;8294316;28;20046;-91
2022/07/11 10:52:10;;;;;;;0.95;0.90;;;;;;;;;;8232934;28;20602;-90
2022/07/11 10:56:31;;;;;;;4.45;1.70;;;;;;;;;;8226977;28;20104;-88
2022/07/11 11:00:35;;;;;;;4.57;2.00;;;;;;;;;;8212848;28;20137;-91
2022/07/11 11:04:46;;;;;;;3.65;1.58;;;;;;;;;;8231702;28;20698;-91
2022/07/11 11:08:50;;;;;;;7.05;2.30;;;;;;;;;;8240216;28;20153;-92
2022/07/11 11:13:15;;;;;;;5.90;1.33;;;;;;;;;;8232853;28;20443;-88
2022/07/11 11:17:38;;;;;;;2.20;1.10;;;;;;;;;;8240559;28;20169;-89
2022/07/11 11:22:05;;;;;;;2.80;1.10;;;;;;;;;;8237474;28;20046;-89
2022/07/11 11:26:11;;;;;;;1.52;1.10;;;;;;;;;;8240204;28;20074;-91
2022/07/11 11:30:17;;;;;;;1.30;1.00;;;;;;;;;;8226134;28;20089;-90
2022/07/11 11:34:26;;;;;;;3.15;1.17;;;;;;;;;;8233066;28;20087;-90
2022/07/11 11:38:33;;;;;;;4.18;1.95;;;;;;;;;;8239813;28;20050;-89
2022/07/11 11:42:37;;;;;;;3.42;1.70;;;;;;;;;;8246267;28;20053;-90
2022/07/11 11:46:42;;;;;;;4.32;1.48;;;;;;;;;;8244799;28;20129;-93
2022/07/11 11:50:49;;;;;;;1.75;1.17;;;;;;;;;;8289414;28;20148;-92
2022/07/11 11:55:11;;;;;;;5.47;1.33;;;;;;;;;;8290220;28;20108;-89
2022/07/11 11:59:15;;;;;;;1.05;0.95;;;;;;;;;;8297931;28;20058;-91
2022/07/11 12:03:30;;;;;;;1.40;0.93;;;;;;;;;;8338430;28;20060;-89
2022/07/11 12:07:35;;;;;;;1.00;0.90;;;;;;;;;;8384001;28;20052;-93
2022/07/11 12:11:39;;;;;;;1.95;1.20;;;;;;;;;;8384795;28;20045;-90
2022/07/11 12:20:16;;;;;;;2.20;1.23;;;;;;;;;;8366599;28;20705;-90
2022/07/11 12:34:18;;;;;;;0.90;0.90;;;;;;;;;;8370544;28;20048;-95
2022/07/11 12:38:27;;;;;;;1.13;1.02;;;;;;;;;;8308085;28;20050;-91
2022/07/11 12:42:32;;;;;;;1.30;1.15;;;;;;;;;;8305213;28;20053;-91
2022/07/11 12:46:38;;;;;;;3.75;1.35;;;;;;;;;;8291037;28;20089;-90
2022/07/11 12:50:56;;;;;;;1.38;1.13;;;;;;;;;;8295504;28;20061;-90
2022/07/11 13:39:51;;;;;;;3.42;1.65;;;;;;;;;;8314426;28;20449;-89
2022/07/11 13:43:55;;;;;;;4.47;1.30;;;;;;;;;;8366337;28;20063;-89
2022/07/11 13:48:05;;;;;;;7.78;1.48;;;;;;;;;;8430699;28;20395;-86
2022/07/11 13:56:35;;;;;;;;;;;;;;;;;;8435416;28;20044;-87
2022/07/11 14:00:48;;;;;;;2.90;1.20;;;;;;;;;;8423703;28;19920;-86
2022/07/11 14:05:14;;;;;;;6.97;1.50;;;;;;;;;;8377900;28;20047;-87
2022/07/11 14:10:07;;;;;;;2.05;1.35;;;;;;;;;;8431513;28;20047;-86
2022/07/11 14:14:21;;;;;;;2.08;1.20;;;;;;;;;;8428412;28;20502;-96
2022/07/11 14:18:49;;;;;;;4.80;1.35;;;;;;;;;;8326315;28;20049;-92
2022/07/11 14:28:16;;;;;;;2.08;1.10;;;;;;;;;;8319833;28;20155;-90
2022/07/11 14:32:53;;;;;;;1.40;1.23;;;;;;;;;;8301857;28;20077;-88
2022/07/11 14:41:30;;;;;;;3.25;1.90;;;;;;;;;;8334485;28;20821;-88
2022/07/11 14:45:35;;;;;;;3.58;2.53;;;;;;;;;;8381584;28;20078;-95
2022/07/11 14:49:43;;;;;;;2.00;1.80;;;;;;;;;;8374022;28;20092;-90
2022/07/11 14:53:49;;;;;;;3.85;2.80;;;;;;;;;;8374625;28;20067;-89
2022/07/11 14:57:53;;;;;;;1.55;1.20;;;;;;;;;;8363650;28;20079;-88
2022/07/11 15:01:58;;;;;;;2.15;1.25;;;;;;;;;;8376885;28;20400;-89
2022/07/11 15:06:04;;;;;;;6.97;4.00;;;;;;;;;;8373350;28;20119;-88
2022/07/11 15:14:31;;;;;;;5.63;1.90;;;;;;;;;;8386044;28;20547;-90
2022/07/11 15:18:35;;;;;;;6.03;2.80;;;;;;;;;;8374824;28;20511;-86
2022/07/11 15:22:41;;;;;;;2.40;2.05;;;;;;;;;;8380887;28;20053;-86
2022/07/11 15:26:44;;;;;;;3.85;1.73;;;;;;;;;;8400685;28;20040;-85
2022/07/11 15:30:48;;;;;;;4.82;1.75;;;;;;;;;;8410298;28;20044;-88
2022/07/11 15:34:52;;;;;;;6.60;1.70;;;;;;;;;;8425754;28;20068;-87
2022/07/11 15:39:02;;;;;;;3.38;1.30;;;;;;;;;;8424308;28;20056;-85
2022/07/11 15:43:06;;;;;;;7.65;1.58;;;;;;;;;;8425107;28;20052;-85
2022/07/11 15:47:10;;;;;;;2.72;1.05;;;;;;;;;;8412782;28;20048;-85
2022/07/11 15:51:13;;;;;;;30.33;13.90;;;;;;;;;;8418108;28;20036;-86
2022/07/11 15:55:21;;;;;;;5.05;2.85;;;;;;;;;;8425397;28;20080;-89
2022/07/11 15:59:31;;;;;;;4.82;2.15;;;;;;;;;;8420784;28;20127;-89
2022/07/11 16:03:48;;;;;;;5.90;2.08;;;;;;;;;;8407935;28;20491;-90
2022/07/11 16:07:55;;;;;;;8.00;4.03;;;;;;;;;;8413993;28;20555;-92
2022/07/11 16:12:00;;;;;;;3.35;2.40;;;;;;;;;;8406676;28;20498;-92
2022/07/11 16:16:04;;;;;;;5.75;1.65;;;;;;;;;;8429985;28;20594;-89
2022/07/11 16:20:10;;;;;;;8.38;3.92;;;;;;;;;;8407925;28;20444;-88
2022/07/11 16:24:13;;;;;;;6.47;3.20;;;;;;;;;;8415100;28;20506;-87
2022/07/11 16:28:18;;;;;;;1.98;1.60;;;;;;;;;;8413922;28;20461;-86
2022/07/11 16:32:22;;;;;;;2.78;1.40;;;;;;;;;;8422431;28;20051;-86
2022/07/11 16:36:27;;;;;;;1.90;1.63;;;;;;;;;;8417650;28;20071;-86
2022/07/11 16:44:54;;;;;;;2.03;1.70;;;;;;;;;;8404196;28;20048;-86
2022/07/11 16:48:58;;;;;;;2.47;1.90;;;;;;;;;;8413695;28;20504;-85
2022/07/11 16:53:02;;;;;;;4.93;2.30;;;;;;;;;;8409702;28;20052;-85
2022/07/11 16:57:06;;;;;;;4.43;2.63;;;;;;;;;;8413094;28;20069;-85
2022/07/11 17:01:11;;;;;;;3.67;2.30;;;;;;;;;;8408518;28;20048;-85
2022/07/11 17:05:15;;;;;;;4.13;2.00;;;;;;;;;;8419668;28;20054;-85
2022/07/11 17:09:19;;;;;;;3.63;2.47;;;;;;;;;;8426303;28;20181;-85
2022/07/11 17:13:22;;;;;;;6.72;3.30;;;;;;;;;;8402155;28;20445;-84
2022/07/11 17:17:27;;;;;;;4.93;2.88;;;;;;;;;;8416691;28;20044;-84
2022/07/11 17:21:31;;;;;;;6.43;3.38;;;;;;;;;;8410880;28;20044;-84
2022/07/11 17:25:36;;;;;;;5.45;2.85;;;;;;;;;;8419136;28;20047;-85
2022/07/11 17:29:39;;;;;;;4.68;2.38;;;;;;;;;;8406557;28;20061;-85
2022/07/11 17:33:44;;;;;;;3.88;2.28;;;;;;;;;;8403384;28;20040;-90
2022/07/11 17:37:51;;;;;;;3.53;2.45;;;;;;;;;;8416569;28;20052;-85
2022/07/11 17:41:55;;;;;;;4.90;2.70;;;;;;;;;;8425188;28;20052;-85
2022/07/11 17:45:58;;;;;;;5.03;2.47;;;;;;;;;;8417787;28;20051;-85
2022/07/11 17:50:05;;;;;;;3.40;2.72;;;;;;;;;;8424868;28;20055;-85
2022/07/11 17:54:09;;;;;;;4.28;2.95;;;;;;;;;;8424174;28;20068;-85
2022/07/11 17:58:13;;;;;;;3.92;2.70;;;;;;;;;;8423957;28;20054;-84
2022/07/11 18:02:17;;;;;;;4.65;2.78;;;;;;;;;;8434278;28;20052;-90
2022/07/11 18:06:28;;;;;;;5.00;2.90;;;;;;;;;;8429380;28;20535;-86
2022/07/11 18:10:34;;;;;;;3.03;2.67;;;;;;;;;;8417026;28;20043;-85
2022/07/11 18:14:42;;;;;;;3.45;2.72;;;;;;;;;;8438133;28;20513;-85
2022/07/11 18:18:48;;;;;;;3.38;2.53;;;;;;;;;;8421255;28;20127;-86
2022/07/11 18:23:05;;;;;;;2.88;1.92;;;;;;;;;;8423937;28;20466;-90
2022/07/11 18:27:28;;;;;;;4.00;2.65;;;;;;;;;;8433061;28;20047;-85
2022/07/11 18:41:22;;;;;;;5.93;3.63;;;;;;;;;;8426664;28;20052;-86
2022/07/11 18:45:28;;;;;;;6.30;2.95;;;;;;;;;;8426976;28;20048;-86
2022/07/11 18:49:40;;;;;;;4.57;2.92;;;;;;;;;;8423886;28;20074;-87
2022/07/11 18:53:44;;;;;;;5.40;3.78;;;;;;;;;;8411748;28;20450;-85
2022/07/11 18:57:54;;;;;;;6.90;5.60;;;;;;;;;;8404289;28;20044;-86
2022/07/11 19:01:57;;;;;;;7.65;5.65;;;;;;;;;;8409232;28;20048;-94
2022/07/11 19:06:01;;;;;;;13.85;6.25;;;;;;;;;;8411823;28;20047;-85
2022/07/11 19:10:07;;;;;;;6.25;4.22;;;;;;;;;;8412266;28;20100;-85
2022/07/11 19:14:13;;;;;;;7.45;4.80;;;;;;;;;;8419460;28;20502;-84
2022/07/11 19:18:16;;;;;;;5.57;3.92;;;;;;;;;;8397712;28;20045;-86
2022/07/11 19:22:21;;;;;;;6.13;4.22;;;;;;;;;;8409519;28;20071;-85
2022/07/11 19:26:24;;;;;;;7.53;5.10;;;;;;;;;;8413318;28;20080;-85
2022/07/11 19:30:59;;;;;;;6.88;4.88;;;;;;;;;;8231721;28;5123215;-85
2022/07/11 19:35:03;;;;;;;9.52;5.00;;;;;;;;;;8428555;28;20044;-85
2022/07/11 19:39:15;;;;;;;15.55;7.72;;;;;;;;;;8426841;28;20048;-86
2022/07/11 19:43:18;;;;;;;21.17;12.70;;;;;;;;;;8413204;28;20447;-86
2022/07/11 19:47:24;;;;;;;23.65;13.13;;;;;;;;;;8408796;28;20047;-85
2022/07/11 19:51:27;;;;;;;39.65;22.77;;;;;;;;;;8397258;28;20148;-85
2022/07/11 19:59:54;;;;;;;26.90;14.07;;;;;;;;;;8416468;28;20048;-85
2022/07/11 20:04:25;;;;;;;27.05;13.68;;;;;;;;;;8412130;28;20045;-87
2022/07/11 20:08:54;;;;;;;20.48;11.98;;;;;;;;;;8406183;28;20040;-87
2022/07/11 20:13:14;;;;;;;19.67;10.65;;;;;;;;;;8400303;28;20124;-85
2022/07/11 20:17:33;;;;;;;14.93;8.15;;;;;;;;;;8416322;28;20047;-86
2022/07/11 20:21:49;;;;;;;9.43;6.15;;;;;;;;;;8419852;28;20087;-85
2022/07/11 20:26:06;;;;;;;9.95;6.18;;;;;;;;;;8415891;28;20120;-86
2022/07/11 20:30:17;;;;;;;9.52;6.53;;;;;;;;;;8404438;28;20045;-86
2022/07/11 20:34:21;;;;;;;7.33;5.10;;;;;;;;;;8412882;28;20058;-88
2022/07/11 20:38:26;;;;;;;8.73;4.60;;;;;;;;;;8406018;28;20041;-85
2022/07/11 20:42:30;;;;;;;8.57;4.07;;;;;;;;;;8402956;28;20055;-86
2022/07/11 20:46:35;;;;;;;5.78;3.47;;;;;;;;;;8424726;28;20051;-87
2022/07/11 20:50:38;;;;;;;5.63;3.22;;;;;;;;;;8430215;28;20044;-86
2022/07/11 20:54:44;;;;;;;5.70;2.85;;;;;;;;;;8410734;28;20048;-85
2022/07/11 20:58:48;;;;;;;5.75;3.47;;;;;;;;;;8409229;28;20045;-84
2022/07/11 21:02:52;;;;;;;4.45;3.00;;;;;;;;;;8415934;28;20055;-85
2022/07/11 21:06:57;;;;;;;4.80;3.22;;;;;;;;;;8418019;28;20100;-86
2022/07/11 21:11:04;;;;;;;5.97;3.20;;;;;;;;;;8423361;28;20040;-86
2022/07/11 21:15:09;;;;;;;7.32;3.15;;;;;;;;;;8396981;28;20048;-92
2022/07/11 21:19:13;;;;;;;5.20;3.42;;;;;;;;;;8412703;28;20102;-85
2022/07/11 21:23:16;;;;;;;6.55;3.45;;;;;;;;;;8415914;28;20060;-85
2022/07/11 21:27:22;;;;;;;6.07;3.30;;;;;;;;;;8422958;28;20044;-85
2022/07/11 21:31:25;;;;;;;7.43;3.33;;;;;;;;;;8425011;28;20602;-85
2022/07/11 21:35:29;;;;;;;6.20;3.58;;;;;;;;;;8413962;28;20044;-85
2022/07/11 21:39:32;;;;;;;5.05;3.08;;;;;;;;;;8413982;28;20048;-85
2022/07/11 21:43:37;;;;;;;4.57;3.40;;;;;;;;;;8416494;28;20043;-86
2022/07/11 21:47:41;;;;;;;5.15;3.17;;;;;;;;;;8412385;28;20040;-85
2022/07/11 21:51:47;;;;;;;4.57;2.63;;;;;;;;;;8437779;28;20104;-85
2022/07/11 21:55:50;;;;;;;3.97;3.00;;;;;;;;;;8440719;28;20064;-85
2022/07/11 21:59:55;;;;;;;4.25;3.03;;;;;;;;;;8437544;28;20441;-85
2022/07/11 22:03:57;;;;;;;3.53;2.70;;;;;;;;;;8432923;28;20039;-85
2022/07/11 22:08:00;;;;;;;3.92;2.92;;;;;;;;;;8430140;28;20055;-85
2022/07/11 22:12:04;;;;;;;5.30;3.28;;;;;;;;;;8431076;28;20043;-85
2022/07/11 22:16:08;;;;;;;6.28;3.30;;;;;;;;;;8411640;28;20051;-86
2022/07/11 22:20:12;;;;;;;5.88;3.35;;;;;;;;;;8428969;28;20070;-85
2022/07/11 22:24:18;;;;;;;7.93;3.30;;;;;;;;;;8416505;28;20113;-85
2022/07/11 22:28:24;;;;;;;6.43;3.10;;;;;;;;;;8403331;28;20139;-88
2022/07/11 22:32:29;;;;;;;5.05;3.40;;;;;;;;;;8419777;28;20100;-92
2022/07/11 22:36:35;;;;;;;5.88;3.10;;;;;;;;;;8402962;28;20402;-92
2022/07/11 22:40:38;;;;;;;5.65;2.80;;;;;;;;;;8414550;28;20541;-93
2022/07/11 22:44:42;;;;;;;4.65;3.20;;;;;;;;;;8425293;28;20051;-87
2022/07/11 22:48:47;;;;;;;5.45;3.08;;;;;;;;;;8418930;28;20122;-88
2022/07/11 22:52:50;;;;;;;3.95;2.70;;;;;;;;;;8413423;28;20040;-94
2022/07/11 22:56:52;;;;;;;5.18;3.22;;;;;;;;;;8405102;28;20045;-86
2022/07/11 23:00:55;;;;;;;6.35;2.97;;;;;;;;;;8422010;28;20127;-93
2022/07/11 23:05:00;;;;;;;4.63;2.90;;;;;;;;;;8426009;28;20048;-86
2022/07/11 23:09:06;;;;;;;4.45;2.75;;;;;;;;;;8426340;28;20480;-86
2022/07/11 23:13:11;;;;;;;4.22;2.90;;;;;;;;;;8436245;22;20168;-87
2022/07/11 23:17:13;;;;;;;6.00;3.40;;;;;;;;;;8362040;28;20056;-86
2022/07/11 23:21:20;;;;;;;4.95;3.55;;;;;;;;;;8363346;28;20115;-94
2022/07/11 23:25:23;;;;;;;10.52;5.40;;;;;;;;;;8360336;28;20487;-95
2022/07/11 23:29:29;;;;;;;14.90;6.75;;;;;;;;;;8345967;28;20198;-93
2022/07/11 23:33:34;;;;;;;14.85;6.57;;;;;;;;;;8345631;28;20056;-87
2022/07/11 23:37:41;;;;;;;12.50;5.28;;;;;;;;;;8345698;28;20583;-88
2022/07/11 23:41:44;;;;;;;25.50;7.72;;;;;;;;;;8345500;28;20111;-88
2022/07/11 23:45:50;;;;;;;12.50;6.95;;;;;;;;;;8345770;28;20412;-86
2022/07/11 23:49:55;;;;;;;12.65;6.43;;;;;;;;;;8345333;28;20049;-94
2022/07/11 23:54:02;;;;;;;9.55;5.75;;;;;;;;;;8345540;28;20049;-87
2022/07/11 23:58:05;;;;;;;7.70;5.15;;;;;;;;;;8346050;28;20057;-87
